Time;durP1;ratioP1;P1;durP2;ratioP2;P2;SDS_P1;SDS_P2;PMS_P1;PMS_P2;Temp;Humidity;BMP_temperature;BMP_pressure;BME280_temperature;BME280_humidity;BME280_pressure;Samples;Min_cycle;Max_cycle;Signal;HPM_P1;HPM_P2
2022/08/04 00:00:06;;;;;;;;;;;;;;;22.36;74.29;100438.85;1785873;78;20197;-74
2022/08/04 00:03:07;;;;;;;;;;;;;;;22.36;74.23;100444.30;1786242;79;22135;-73
2022/08/04 00:05:54;;;;;;;;;;;;;;;22.35;74.07;100443.29;1785488;80;20170;-73
2022/08/04 00:08:47;;;;;;;;;;;;;;;22.35;74.02;100448.73;1786741;79;20213;-74
2022/08/04 00:11:17;;;;;;;;;;;;;;;22.36;73.89;100456.54;1785392;79;20194;-73
2022/08/04 00:13:47;;;;;;;;;;;;;;;22.35;73.83;100456.89;1787046;80;20493;-73
2022/08/04 00:16:13;;;;;;;;;;;;;;;22.36;73.85;100454.39;1759976;80;21044;-74
2022/08/04 00:18:41;;;;;;;;;;;;;;;22.38;73.80;100460.30;1785063;79;20471;-73
2022/08/04 00:21:11;;;;;;;;;;;;;;;22.38;73.72;100457.01;1782362;78;20476;-74
2022/08/04 00:23:38;;;;;;;;;;;;;;;22.38;73.66;100451.56;1790730;78;20294;-73
2022/08/04 00:26:04;;;;;;;;;;;;;;;22.40;73.54;100445.77;1785907;80;20273;-74
2022/08/04 00:28:31;;;;;;;;;;;;;;;22.42;73.45;100444.88;1785219;80;22035;-74
2022/08/04 00:30:57;;;;;;;;;;;;;;;22.44;73.29;100438.51;1787820;78;20349;-74
2022/08/04 00:33:24;;;;;;;;;;;;;;;22.44;73.08;100435.25;1786165;79;20271;-74
2022/08/04 00:35:50;;;;;;;;;;;;;;;22.42;72.87;100433.99;1786437;78;20649;-74
2022/08/04 00:38:17;;;;;;;;;;;;;;;22.41;72.76;100426.97;1786818;80;20159;-74
2022/08/04 00:41:15;;;;;;;;;;;;;;;22.39;72.76;100442.26;1786908;78;21177;-74
2022/08/04 00:44:04;;;;;;;;;;;;;;;22.37;72.85;100446.45;1785617;80;21373;-75
2022/08/04 00:46:51;;;;;;;;;;;;;;;22.32;72.88;100451.55;1785453;79;20166;-74
2022/08/04 00:49:23;;;;;;;;;;;;;;;22.29;72.99;100450.87;1788239;79;20430;-74
2022/08/04 00:51:54;;;;;;;;;;;;;;;22.30;73.02;100449.73;1786355;79;20195;-72
2022/08/04 00:54:39;;;;;;;;;;;;;;;22.30;72.92;100453.81;1785941;79;21861;-74
2022/08/04 00:57:26;;;;;;;;;;;;;;;22.31;72.89;100455.95;1781548;80;20555;-74
2022/08/04 00:59:59;;;;;;;;;;;;;;;22.30;72.92;100458.46;1783313;79;20170;-74
2022/08/04 01:02:32;;;;;;;;;;;;;;;22.30;72.84;100452.45;1782696;79;20188;-75
2022/08/04 01:05:14;;;;;;;;;;;;;;;22.31;72.88;100455.42;1781780;79;20453;-73
2022/08/04 01:08:01;;;;;;;;;;;;;;;22.33;72.93;100458.58;1767529;78;21817;-74
2022/08/04 01:10:34;;;;;;;;;;;;;;;22.36;72.91;100463.91;1776570;80;20167;-73
2022/08/04 01:13:24;;;;;;;;;;;;;;;22.33;72.91;100465.38;1817802;78;20187;-73
2022/08/04 01:16:02;;;;;;;;;;;;;;;22.31;72.97;100462.77;1824522;78;20447;-75
2022/08/04 01:18:55;;;;;;;;;;;;;;;22.28;73.09;100463.44;1824278;78;20223;-74
2022/08/04 01:21:31;;;;;;;;;;;;;;;22.30;73.20;100476.15;1784967;79;21200;-74
2022/08/04 01:24:07;;;;;;;;;;;;;;;22.33;73.21;100479.55;1778020;79;20191;-74
2022/08/04 01:26:43;;;;;;;;;;;;;;;22.32;73.21;100478.77;1777925;80;20554;-74
2022/08/04 01:29:14;;;;;;;;;;;;;;;22.34;73.23;100478.41;1782196;80;20151;-73
2022/08/04 01:31:48;;;;;;;;;;;;;;;22.34;73.28;100483.86;1779537;79;20170;-74
2022/08/04 01:34:15;;;;;;;;;;;;;;;22.35;73.32;100479.45;1790499;78;20970;-75
2022/08/04 01:36:46;;;;;;;;;;;;;;;22.40;73.26;100476.50;1790386;79;20167;-75
2022/08/04 01:41:58;;;;;;;;;;;;;;;22.45;73.23;100476.86;1775264;80;20465;-74
2022/08/04 01:44:27;;;;;;;;;;;;;;;22.53;73.15;100477.87;1788867;78;20204;-74
2022/08/04 01:46:53;;;;;;;;;;;;;;;22.57;72.98;100476.05;1824108;78;21792;-74
2022/08/04 01:49:21;;;;;;;;;;;;;;;22.56;72.87;100477.98;1803810;78;20167;-74
2022/08/04 01:51:51;;;;;;;;;;;;;;;22.58;72.86;100477.09;1786877;80;20144;-73
2022/08/04 01:54:17;;;;;;;;;;;;;;;22.59;72.80;100478.67;1787601;80;20154;-75
2022/08/04 01:56:46;;;;;;;;;;;;;;;22.57;72.65;100478.20;1785534;78;20140;-75
2022/08/04 01:59:14;;;;;;;;;;;;;;;22.55;72.64;100472.33;1789398;80;21140;-74
2022/08/04 02:01:40;;;;;;;;;;;;;;;22.55;72.55;100468.81;1791962;80;20179;-74
2022/08/04 02:04:07;;;;;;;;;;;;;;;22.54;72.54;100469.38;1783105;80;20148;-75
2022/08/04 02:07:02;;;;;;;;;;;;;;;22.57;72.60;100465.17;1775980;79;20312;-75
2022/08/04 02:09:44;;;;;;;;;;;;;;;22.60;72.60;100468.00;1786820;79;20225;-75
2022/08/04 02:12:24;;;;;;;;;;;;;;;22.64;72.52;100468.14;1790364;80;21166;-75
2022/08/04 02:15:00;;;;;;;;;;;;;;;22.61;72.27;100465.53;1780909;78;20526;-73
2022/08/04 02:17:37;;;;;;;;;;;;;;;22.56;72.35;100463.59;1787660;78;20202;-73
2022/08/04 02:20:12;;;;;;;;;;;;;;;22.57;72.42;100459.72;1788177;79;20454;-74
2022/08/04 02:22:47;;;;;;;;;;;;;;;22.61;72.48;100459.30;1786534;79;20257;-74
2022/08/04 02:25:14;;;;;;;;;;;;;;;22.61;72.37;100456.00;1789687;79;21204;-74
2022/08/04 02:28:08;;;;;;;;;;;;;;;22.59;72.28;100458.25;1791458;78;20556;-74
2022/08/04 02:30:38;;;;;;;;;;;;;;;22.56;72.37;100459.50;1773494;80;20168;-75
2022/08/04 02:33:04;;;;;;;;;;;;;;;22.53;72.51;100456.89;1772832;80;20393;-74
2022/08/04 02:35:34;;;;;;;;;;;;;;;22.52;72.60;100455.31;1787846;79;20222;-74
2022/08/04 02:38:19;;;;;;;;;;;;;;;22.52;72.68;100459.97;1786041;79;20894;-74
2022/08/04 02:40:45;;;;;;;;;;;;;;;22.46;72.67;100453.38;1787749;80;20268;-73
2022/08/04 02:43:11;;;;;;;;;;;;;;;22.40;72.86;100452.00;1787489;80;20532;-74
2022/08/04 02:45:38;;;;;;;;;;;;;;;22.39;73.00;100455.08;1785070;80;20381;-74
2022/08/04 02:48:05;;;;;;;;;;;;;;;22.39;73.12;100456.44;1761542;79;20195;-74
2022/08/04 02:50:33;;;;;;;;;;;;;;;22.40;73.21;100449.28;1787460;79;21224;-74
2022/08/04 02:53:01;;;;;;;;;;;;;;;22.43;73.26;100453.26;1782717;80;20477;-74
2022/08/04 02:55:28;;;;;;;;;;;;;;;22.43;73.27;100451.89;1783560;79;20461;-74
2022/08/04 02:57:57;;;;;;;;;;;;;;;22.44;73.25;100453.48;1784489;78;20166;-74
2022/08/04 03:00:23;;;;;;;;;;;;;;;22.46;73.18;100452.01;1784672;79;20185;-75
2022/08/04 03:02:56;;;;;;;;;;;;;;;22.44;73.17;100450.22;1787281;79;21864;-73
2022/08/04 03:05:42;;;;;;;;;;;;;;;22.41;73.20;100450.10;1786500;79;20175;-75
2022/08/04 03:08:21;;;;;;;;;;;;;;;22.41;73.21;100448.17;1774643;79;20173;-74
2022/08/04 03:11:03;;;;;;;;;;;;;;;22.42;73.22;100446.23;1789448;78;20232;-73
2022/08/04 03:14:02;;;;;;;;;;;;;;;22.44;73.24;100442.59;1786170;80;20528;-74
2022/08/04 03:16:49;;;;;;;;;;;;;;;22.48;73.24;100444.88;1786215;79;21992;-74
2022/08/04 03:19:40;;;;;;;;;;;;;;;22.52;73.24;100448.50;1787602;78;20230;-74
2022/08/04 03:22:30;;;;;;;;;;;;;;;22.56;73.31;100446.69;1788627;78;20547;-75
2022/08/04 03:25:24;;;;;;;;;;;;;;;22.59;73.28;100444.64;1786187;79;20174;-74
2022/08/04 03:28:26;;;;;;;;;;;;;;;22.61;73.28;100450.55;1784984;79;20289;-75
2022/08/04 03:31:18;;;;;;;;;;;;;;;22.59;73.29;100454.17;1788145;79;21253;-74
2022/08/04 03:33:54;;;;;;;;;;;;;;;22.58;73.33;100455.31;1784220;79;20284;-75
2022/08/04 03:36:24;;;;;;;;;;;;;;;22.60;73.33;100459.05;1785024;79;20199;-75
2022/08/04 03:39:03;;;;;;;;;;;;;;;22.59;73.29;100465.06;1786634;79;20233;-75
2022/08/04 03:41:56;;;;;;;;;;;;;;;22.59;73.32;100460.98;1785723;80;20202;-75
2022/08/04 03:44:45;;;;;;;;;;;;;;;22.61;73.26;100470.97;1782310;79;20651;-74
2022/08/04 03:47:38;;;;;;;;;;;;;;;22.65;73.14;100467.00;1787793;78;20190;-74
2022/08/04 03:50:23;;;;;;;;;;;;;;;22.66;72.99;100470.73;1785670;78;20166;-74
2022/08/04 03:53:11;;;;;;;;;;;;;;;22.65;72.97;100471.08;1785221;79;20245;-75
2022/08/04 03:56:07;;;;;;;;;;;;;;;22.68;72.89;100471.19;1774337;80;20185;-74
2022/08/04 03:58:46;;;;;;;;;;;;;;;22.73;72.79;100468.01;1765884;80;21142;-74
2022/08/04 04:01:25;;;;;;;;;;;;;;;22.79;72.67;100472.09;1784946;79;20268;-74
2022/08/04 04:04:04;;;;;;;;;;;;;;;22.83;72.52;100472.99;1784852;80;20151;-74
2022/08/04 04:06:47;;;;;;;;;;;;;;;22.86;72.34;100475.83;1783292;79;20209;-74
2022/08/04 04:09:33;;;;;;;;;;;;;;;22.90;72.37;100469.12;1783340;79;20575;-74
2022/08/04 04:12:10;;;;;;;;;;;;;;;22.95;72.29;100473.02;1785612;78;21298;-74
2022/08/04 04:14:52;;;;;;;;;;;;;;;22.98;72.17;100474.27;1786324;80;20197;-74
2022/08/04 04:17:50;;;;;;;;;;;;;;;23.00;72.17;100469.25;1786565;79;20159;-73
2022/08/04 04:20:54;;;;;;;;;;;;;;;23.02;72.10;100467.78;1785088;79;20200;-74
2022/08/04 04:23:49;;;;;;;;;;;;;;;22.99;71.95;100469.83;1785085;79;20259;-75
2022/08/04 04:26:39;;;;;;;;;;;;;;;23.00;71.92;100473.34;1785788;79;21203;-74
2022/08/04 04:29:12;;;;;;;;;;;;;;;22.97;71.88;100474.84;1788411;78;20158;-74
2022/08/04 04:32:03;;;;;;;;;;;;;;;22.96;71.95;100471.88;1785376;79;20178;-75
2022/08/04 04:34:40;;;;;;;;;;;;;;;23.01;71.98;100473.59;1786647;80;20656;-75
2022/08/04 04:37:28;;;;;;;;;;;;;;;23.04;71.89;100477.78;1786987;80;20516;-75
2022/08/04 04:39:58;;;;;;;;;;;;;;;23.07;71.84;100474.37;1777206;79;21165;-75
2022/08/04 04:42:47;;;;;;;;;;;;;;;23.11;71.88;100472.54;1786683;78;20240;-75
2022/08/04 04:45:24;;;;;;;;;;;;;;;23.16;71.61;100484.58;1777316;79;20169;-74
2022/08/04 04:48:15;;;;;;;;;;;;;;;23.17;71.40;100481.28;1784427;78;20177;-74
2022/08/04 04:50:48;;;;;;;;;;;;;;;23.18;71.33;100475.47;1767505;78;20192;-74
2022/08/04 04:53:30;;;;;;;;;;;;;;;23.23;71.25;100475.82;1789789;78;21099;-75
2022/08/04 04:56:02;;;;;;;;;;;;;;;23.26;71.04;100476.47;1813445;78;20203;-73
2022/08/04 04:58:39;;;;;;;;;;;;;;;23.30;70.83;100480.11;1804573;78;20462;-74
2022/08/04 05:01:19;;;;;;;;;;;;;;;23.30;70.56;100480.69;1787299;78;20237;-74
2022/08/04 05:03:58;;;;;;;;;;;;;;;23.27;70.50;100482.73;1781445;79;20184;-74
2022/08/04 05:06:40;;;;;;;;;;;;;;;23.26;70.57;100479.77;1791643;78;21243;-74
2022/08/04 05:09:13;;;;;;;;;;;;;;;23.28;70.57;100482.38;1794577;78;20165;-74
2022/08/04 05:11:44;;;;;;;;;;;;;;;23.33;70.51;100482.70;1786435;78;20544;-75
2022/08/04 05:14:17;;;;;;;;;;;;;;;23.36;70.30;100489.64;1798264;78;20172;-74
2022/08/04 05:16:54;;;;;;;;;;;;;;;23.39;70.26;100494.95;1791279;78;20171;-75
2022/08/04 05:19:43;;;;;;;;;;;;;;;23.40;70.02;100490.53;1789825;78;21127;-74
2022/08/04 05:22:12;;;;;;;;;;;;;;;23.42;69.94;100488.81;1788115;78;20153;-74
2022/08/04 05:24:41;;;;;;;;;;;;;;;23.47;69.82;100493.24;1759631;81;20221;-75
2022/08/04 05:27:16;;;;;;;;;;;;;;;23.51;69.84;100490.83;1758867;81;20224;-74
2022/08/04 05:29:51;;;;;;;;;;;;;;;23.54;69.34;100494.23;1758953;81;20547;-73
2022/08/04 05:32:21;;;;;;;;;;;;;;;23.53;69.15;100487.20;1759395;81;21834;-74
2022/08/04 05:34:57;;;;;;;;;;;;;;;23.59;69.12;100489.91;1774859;80;20162;-73
2022/08/04 05:37:23;;;;;;;;;;;;;;;23.64;68.97;100492.38;1789665;80;20198;-74
2022/08/04 05:39:55;;;;;;;;;;;;;;;23.71;68.92;100494.53;1782537;79;20209;-74
2022/08/04 05:42:22;;;;;;;;;;;;;;;23.78;68.81;100498.82;1786968;78;20206;-76
2022/08/04 05:44:48;;;;;;;;;;;;;;;23.83;68.62;100500.52;1784678;79;21170;-75
2022/08/04 05:47:14;;;;;;;;;;;;;;;23.84;68.36;100505.62;1785956;80;20209;-73
2022/08/04 05:49:40;;;;;;;;;;;;;;;23.83;68.22;100505.98;1739398;80;20173;-75
2022/08/04 05:52:07;;;;;;;;;;;;;;;23.84;68.27;100502.10;1791732;79;20537;-75
2022/08/04 05:54:34;;;;;;;;;;;;;;;23.85;68.11;100504.47;1792438;79;20261;-74
2022/08/04 05:57:03;;;;;;;;;;;;;;;23.85;67.95;100511.86;1791259;80;22189;-76
2022/08/04 05:59:30;;;;;;;;;;;;;;;23.82;68.00;100510.64;1791683;80;20481;-75
2022/08/04 06:01:58;;;;;;;;;;;;;;;23.84;68.06;100513.01;1791807;80;20194;-75
2022/08/04 06:04:36;;;;;;;;;;;;;;;23.80;67.96;100508.83;1792060;79;20162;-76
2022/08/04 06:07:03;;;;;;;;;;;;;;;23.75;68.09;100513.72;1791980;80;20195;-75
2022/08/04 06:09:30;;;;;;;;;;;;;;;23.70;68.09;100510.69;1791361;80;21053;-75
2022/08/04 06:12:00;;;;;;;;;;;;;;;23.66;68.27;100517.95;1791728;80;20186;-76
2022/08/04 06:14:26;;;;;;;;;;;;;;;23.67;68.39;100521.47;1791388;80;20154;-73
2022/08/04 06:16:53;;;;;;;;;;;;;;;23.65;68.47;100521.22;1791791;80;20203;-73
2022/08/04 06:19:19;;;;;;;;;;;;;;;23.65;68.49;100513.04;1792056;78;20191;-73
2022/08/04 06:21:51;;;;;;;;;;;;;;;23.69;68.60;100516.47;1791827;79;21609;-75
2022/08/04 06:24:18;;;;;;;;;;;;;;;23.77;68.64;100515.55;1790921;80;20159;-75
2022/08/04 06:26:45;;;;;;;;;;;;;;;23.86;68.55;100518.92;1791289;80;20179;-72
2022/08/04 06:29:25;;;;;;;;;;;;;;;23.98;68.14;100516.12;1791853;80;20223;-74
2022/08/04 06:31:56;;;;;;;;;;;;;;;24.09;67.78;100517.22;1791111;80;20171;-74
2022/08/04 06:34:15;;;;;;;;;;;;;;;24.19;67.48;100511.03;1790593;80;21140;-75
2022/08/04 06:36:41;;;;;;;;;;;;;;;24.34;67.39;100508.88;1792271;80;20170;-73
2022/08/04 06:39:08;;;;;;;;;;;;;;;24.52;66.86;100508.80;1791837;79;20207;-75
2022/08/04 06:41:34;;;;;;;;;;;;;;;24.67;66.13;100511.28;1791927;80;20198;-74
2022/08/04 06:44:05;;;;;;;;;;;;;;;24.76;65.50;100511.11;1792013;80;20163;-75
2022/08/04 06:46:32;;;;;;;;;;;;;;;24.83;65.24;100503.66;1790702;80;21595;-75
2022/08/04 06:48:58;;;;;;;;;;;;;;;24.93;64.97;100502.53;1766211;80;20501;-74
2022/08/04 06:51:25;;;;;;;;;;;;;;;25.08;64.57;100503.66;1788797;79;20179;-76
2022/08/04 06:53:51;;;;;;;;;;;;;;;25.20;64.03;100498.66;1766146;80;20162;-74
2022/08/04 06:56:18;;;;;;;;;;;;;;;25.31;63.33;100506.53;1785726;79;20224;-74
2022/08/04 06:58:45;;;;;;;;;;;;;;;25.37;63.01;100503.74;1787221;79;21746;-73
2022/08/04 07:01:13;;;;;;;;;;;;;;;25.41;62.63;100502.45;1786908;79;20166;-76
2022/08/04 07:03:39;;;;;;;;;;;;;;;25.41;62.44;100508.70;1786763;79;20154;-75
2022/08/04 07:06:06;;;;;;;;;;;;;;;25.44;62.14;100512.67;1790968;79;20246;-77
2022/08/04 07:08:34;;;;;;;;;;;;;;;25.48;61.85;100500.64;1792225;80;20446;-75
2022/08/04 07:11:01;;;;;;;;;;;;;;;25.54;61.65;100503.89;1789500;79;21855;-73
2022/08/04 07:13:27;;;;;;;;;;;;;;;25.62;61.49;100504.81;1792099;79;20217;-76
2022/08/04 07:15:54;;;;;;;;;;;;;;;25.71;60.96;100506.77;1792034;80;20183;-75
2022/08/04 07:18:20;;;;;;;;;;;;;;;25.81;60.68;100503.47;1784034;80;20201;-77
2022/08/04 07:20:46;;;;;;;;;;;;;;;25.90;60.56;100505.41;1787979;78;20225;-76
2022/08/04 07:23:16;;;;;;;;;;;;;;;25.96;60.21;100510.81;1786451;79;21123;-75
2022/08/04 07:25:41;;;;;;;;;;;;;;;25.99;60.13;100507.12;1788360;80;20210;-73
2022/08/04 07:28:07;;;;;;;;;;;;;;;26.00;60.29;100504.62;1772281;79;20479;-75
2022/08/04 07:30:34;;;;;;;;;;;;;;;26.00;60.06;100505.41;1774434;80;20266;-75
2022/08/04 07:33:01;;;;;;;;;;;;;;;25.95;59.95;100507.05;1785932;80;20216;-73
2022/08/04 07:35:28;;;;;;;;;;;;;;;25.90;60.04;100506.00;1786790;79;21945;-74
2022/08/04 07:37:54;;;;;;;;;;;;;;;25.86;60.04;100504.53;1786658;79;20170;-74
2022/08/04 07:40:20;;;;;;;;;;;;;;;25.82;60.01;100505.05;1786501;80;20510;-75
2022/08/04 07:42:46;;;;;;;;;;;;;;;25.81;60.19;100502.69;1783754;79;20237;-76
2022/08/04 07:45:12;;;;;;;;;;;;;;;25.83;60.12;100502.55;1786421;79;20198;-75
2022/08/04 07:47:41;;;;;;;;;;;;;;;25.88;60.28;100504.97;1784139;79;22041;-73
2022/08/04 07:50:11;;;;;;;;;;;;;;;25.97;60.13;100499.28;1773415;79;20165;-75
2022/08/04 07:52:38;;;;;;;;;;;;;;;26.06;59.89;100509.43;1760785;81;20492;-75
2022/08/04 07:55:05;;;;;;;;;;;;;;;26.10;59.44;100506.17;1769475;79;20202;-77
2022/08/04 07:57:31;;;;;;;;;;;;;;;26.08;58.84;100503.58;1786353;79;20197;-75
2022/08/04 07:59:58;;;;;;;;;;;;;;;26.07;59.27;100498.69;1784701;79;21768;-75
2022/08/04 08:02:24;;;;;;;;;;;;;;;26.25;59.53;100492.73;1786675;79;20222;-74
2022/08/04 08:04:50;;;;;;;;;;;;;;;26.50;58.85;100495.93;1786761;79;20205;-74
2022/08/04 08:07:19;;;;;;;;;;;;;;;26.69;57.83;100499.14;1786518;79;20245;-74
2022/08/04 08:09:45;;;;;;;;;;;;;;;26.79;57.81;100503.44;1787418;79;20516;-74
2022/08/04 08:12:12;;;;;;;;;;;;;;;26.91;57.47;100509.28;1786897;79;21146;-76
2022/08/04 08:14:39;;;;;;;;;;;;;;;26.97;57.08;100508.39;1787966;79;20198;-74
2022/08/04 08:17:06;;;;;;;;;;;;;;;26.91;56.59;100507.91;1764697;80;20576;-75
2022/08/04 08:19:33;;;;;;;;;;;;;;;26.86;56.98;100516.46;1787806;78;20202;-76
2022/08/04 08:22:00;;;;;;;;;;;;;;;26.80;56.84;100506.97;1792204;80;20198;-76
2022/08/04 08:24:30;;;;;;;;;;;;;;;26.71;56.58;100509.95;1791115;79;21536;-74
2022/08/04 08:26:57;;;;;;;;;;;;;;;26.74;57.34;100511.96;1785969;79;20478;-75
2022/08/04 08:29:24;;;;;;;;;;;;;;;26.77;57.08;100510.44;1787254;79;20164;-75
2022/08/04 08:31:51;;;;;;;;;;;;;;;26.72;57.01;100512.92;1788033;79;20210;-74
2022/08/04 08:34:17;;;;;;;;;;;;;;;26.65;57.03;100499.91;1792181;79;20190;-73
2022/08/04 08:36:50;;;;;;;;;;;;;;;26.60;57.22;100504.31;1791412;80;21212;-74
2022/08/04 08:39:28;;;;;;;;;;;;;;;26.66;57.53;100493.26;1782752;80;20456;-75
2022/08/04 08:42:01;;;;;;;;;;;;;;;26.87;57.61;100496.89;1762926;80;20181;-76
2022/08/04 08:44:49;;;;;;;;;;;;;;;27.12;57.33;100493.15;1770237;80;20565;-76
2022/08/04 08:47:28;;;;;;;;;;;;;;;27.36;56.83;100494.66;1786009;80;20206;-76
2022/08/04 08:50:01;;;;;;;;;;;;;;;27.57;55.61;100498.27;1787677;79;22093;-74
2022/08/04 08:52:37;;;;;;;;;;;;;;;27.66;54.79;100495.80;1785227;79;20166;-76
2022/08/04 08:55:13;;;;;;;;;;;;;;;27.61;54.33;100499.68;1786649;79;20218;-76
2022/08/04 08:57:49;;;;;;;;;;;;;;;27.53;54.24;100508.39;1790776;80;20536;-75
2022/08/04 09:00:19;;;;;;;;;;;;;;;27.41;53.97;100513.32;1790388;80;20217;-75
2022/08/04 09:03:09;;;;;;;;;;;;;;;27.29;54.30;100511.61;1789777;80;21629;-75
2022/08/04 09:05:51;;;;;;;;;;;;;;;27.25;54.61;100520.38;1786907;80;20163;-74
2022/08/04 09:08:34;;;;;;;;;;;;;;;27.25;54.54;100510.20;1786876;79;20166;-74
2022/08/04 09:11:09;;;;;;;;;;;;;;;27.29;54.90;100506.92;1785968;79;20219;-73
2022/08/04 09:13:45;;;;;;;;;;;;;;;27.42;54.92;100503.36;1762556;80;20198;-74
2022/08/04 09:16:35;;;;;;;;;;;;;;;27.44;54.51;100508.46;1787262;79;21767;-74
2022/08/04 09:19:18;;;;;;;;;;;;;;;27.38;54.37;100503.91;1756632;79;20162;-74
2022/08/04 09:21:56;;;;;;;;;;;;;;;27.43;54.32;100500.81;1785181;79;20534;-75
2022/08/04 09:24:46;;;;;;;;;;;;;;;27.60;53.92;100507.09;1770495;80;20157;-74
2022/08/04 09:27:16;;;;;;;;;;;;;;;27.83;53.47;100509.74;1761046;81;20232;-74
2022/08/04 09:30:04;;;;;;;;;;;;;;;28.09;53.06;100509.42;1775082;80;21081;-76
2022/08/04 09:32:41;;;;;;;;;;;;;;;28.27;52.52;100508.23;1774517;79;20447;-75
2022/08/04 09:35:32;;;;;;;;;;;;;;;28.41;51.51;100511.13;1787129;80;20163;-74
2022/08/04 09:38:09;;;;;;;;;;;;;;;28.41;51.26;100508.98;1786995;79;20453;-74
2022/08/04 09:40:49;;;;;;;;;;;;;;;28.46;51.49;100508.05;1785303;80;20222;-74
2022/08/04 09:43:37;;;;;;;;;;;;;;;28.59;50.93;100503.02;1784032;80;21126;-75
2022/08/04 09:46:13;;;;;;;;;;;;;;;28.71;50.72;100505.48;1781745;80;20421;-74
2022/08/04 09:49:01;;;;;;;;;;;;;;;28.82;49.90;100499.27;1786086;80;20166;-74
2022/08/04 09:51:37;;;;;;;;;;;;;;;28.84;49.51;100506.55;1786279;79;20170;-74
2022/08/04 09:54:13;;;;;;;;;;;;;;;28.73;49.42;100500.41;1785864;80;20209;-75
2022/08/04 09:56:52;;;;;;;;;;;;;;;28.64;49.35;100498.56;1782970;79;21079;-74
2022/08/04 09:59:27;;;;;;;;;;;;;;;28.65;49.88;100497.38;1786628;79;20201;-74
2022/08/04 10:01:58;;;;;;;;;;;;;;;28.75;49.68;100497.26;1786246;80;20552;-74
2022/08/04 10:04:26;;;;;;;;;;;;;;;28.80;49.65;100497.50;1787619;79;20190;-73
2022/08/04 10:07:08;;;;;;;;;;;;;;;28.73;49.14;100502.37;1792067;80;20221;-75
2022/08/04 10:09:43;;;;;;;;;;;;;;;28.58;49.36;100497.34;1790064;80;20756;-75
2022/08/04 10:12:36;;;;;;;;;;;;;;;28.41;49.76;100497.40;1790029;80;20544;-75
2022/08/04 10:15:30;;;;;;;;;;;;;;;28.29;49.74;100494.90;1789003;79;20454;-75
2022/08/04 10:18:09;;;;;;;;;;;;;;;28.19;50.07;100499.13;1792018;80;20175;-76
2022/08/04 10:20:58;;;;;;;;;;;;;;;28.13;50.18;100493.77;1777213;78;20491;-75
2022/08/04 10:23:54;;;;;;;;;;;;;;;28.14;50.56;100491.84;1768321;80;21754;-74
2022/08/04 10:26:41;;;;;;;;;;;;;;;28.24;50.35;100496.64;1760587;81;20193;-74
2022/08/04 10:29:12;;;;;;;;;;;;;;;28.50;50.32;100492.97;1762555;80;20165;-73
2022/08/04 10:31:51;;;;;;;;;;;;;;;28.82;49.97;100488.27;1757348;81;20200;-74
2022/08/04 10:34:23;;;;;;;;;;;;;;;29.05;48.84;100481.95;1766844;80;20209;-74
2022/08/04 10:36:59;;;;;;;;;;;;;;;28.85;48.48;100491.63;1782467;80;20890;-74
2022/08/04 10:39:38;;;;;;;;;;;;;;;28.82;48.31;100482.77;1780568;79;20257;-75
2022/08/04 10:42:11;;;;;;;;;;;;;;;28.84;48.60;100485.34;1792171;79;20469;-74
2022/08/04 10:44:50;;;;;;;;;;;;;;;28.87;48.62;100482.42;1787973;80;21115;-74
2022/08/04 10:47:19;;;;;;;;;;;;;;;29.20;47.93;100476.74;1781436;79;21086;-74
2022/08/04 10:49:48;;;;;;;;;;;;;;;29.24;48.04;100485.01;1790805;80;21324;-75
2022/08/04 10:52:35;;;;;;;;;;;;;;;29.19;49.24;100479.30;1792176;79;20162;-75
2022/08/04 10:55:21;;;;;;;;;;;;;;;29.11;49.67;100478.27;1791269;80;20201;-74
2022/08/04 10:57:51;;;;;;;;;;;;;;;28.93;50.24;100478.14;1792316;79;20189;-73
2022/08/04 11:00:30;;;;;;;;;;;;;;;28.83;50.78;100478.88;1792090;80;20198;-73
2022/08/04 11:03:23;;;;;;;;;;;;;;;28.82;50.66;100474.52;1791988;79;21056;-74
2022/08/04 11:05:53;;;;;;;;;;;;;;;28.87;51.02;100471.43;1791936;80;20183;-75
2022/08/04 11:08:25;;;;;;;;;;;;;;;28.89;50.45;100468.50;1792153;79;20166;-75
2022/08/04 11:10:59;;;;;;;;;;;;;;;28.93;50.36;100468.52;1791679;80;20186;-76
2022/08/04 11:13:28;;;;;;;;;;;;;;;28.94;50.47;100465.97;1792288;80;20182;-76
2022/08/04 11:15:55;;;;;;;;;;;;;;;28.96;50.82;100468.55;1791780;80;21209;-75
2022/08/04 11:18:32;;;;;;;;;;;;;;;28.98;51.30;100465.39;1792401;80;20257;-77
2022/08/04 11:21:10;;;;;;;;;;;;;;;29.09;51.85;100468.22;1791221;78;20163;-76
2022/08/04 11:23:36;;;;;;;;;;;;;;;29.24;53.19;100467.72;1792376;80;20213;-76
2022/08/04 11:26:07;;;;;;;;;;;;;;;29.27;53.32;100469.70;1791087;79;20249;-77
2022/08/04 11:28:49;;;;;;;;;;;;;;;29.27;53.29;100469.70;1760592;79;21815;-75
2022/08/04 11:31:32;;;;;;;;;;;;;;;29.21;53.06;100463.77;1787669;80;20465;-75
2022/08/04 11:34:19;;;;;;;;;;;;;;;29.19;51.70;100462.80;1792199;80;20531;-74
2022/08/04 11:37:05;;;;;;;;;;;;;;;29.10;52.42;100456.85;1763090;79;20154;-75
2022/08/04 11:39:36;;;;;;;;;;;;;;;29.04;53.45;100444.64;1788314;79;20162;-75
2022/08/04 11:42:14;;;;;;;;;;;;;;;29.08;54.38;100442.69;1783257;80;21223;-75
2022/08/04 11:44:49;;;;;;;;;;;;;;;29.08;52.85;100442.69;1783911;79;20201;-76
2022/08/04 11:47:25;;;;;;;;;;;;;;;29.15;52.38;100440.56;1785272;79;20187;-77
2022/08/04 11:49:55;;;;;;;;;;;;;;;29.20;52.33;100446.48;1785149;80;20474;-76
2022/08/04 11:52:21;;;;;;;;;;;;;;;29.14;52.03;100441.15;1787630;79;20175;-74
2022/08/04 11:54:48;;;;;;;;;;;;;;;29.14;52.19;100437.02;1787080;79;21808;-75
2022/08/04 11:57:14;;;;;;;;;;;;;;;29.08;52.30;100439.94;1766275;80;20203;-75
2022/08/04 11:59:40;;;;;;;;;;;;;;;28.99;52.24;100436.16;1786510;80;20493;-75
2022/08/04 12:02:20;;;;;;;;;;;;;;;28.90;52.47;100433.55;1785417;80;20182;-75
2022/08/04 12:04:59;;;;;;;;;;;;;;;28.82;52.65;100434.08;1787670;80;20361;-75
2022/08/04 12:07:41;;;;;;;;;;;;;;;28.89;53.00;100431.39;1791950;80;21831;-77
2022/08/04 12:10:45;;;;;;;;;;;;;;;29.04;53.21;100427.36;1787164;79;20225;-75
2022/08/04 12:13:18;;;;;;;;;;;;;;;29.29;52.05;100427.47;1786320;79;20249;-75
2022/08/04 12:15:48;;;;;;;;;;;;;;;29.52;50.92;100425.19;1786834;79;20243;-76
2022/08/04 12:18:33;;;;;;;;;;;;;;;29.58;50.71;100418.69;1783414;80;20241;-75
2022/08/04 12:21:02;;;;;;;;;;;;;;;29.50;50.01;100419.27;1786655;78;21163;-75
2022/08/04 12:23:31;;;;;;;;;;;;;;;29.35;50.04;100421.20;1787123;80;20196;-74
2022/08/04 12:26:01;;;;;;;;;;;;;;;29.26;50.42;100418.62;1783355;79;20166;-75
2022/08/04 12:28:41;;;;;;;;;;;;;;;29.14;50.85;100419.15;1790764;80;20167;-75
2022/08/04 12:31:19;;;;;;;;;;;;;;;29.07;51.72;100421.88;1786526;80;20241;-75
2022/08/04 12:34:15;;;;;;;;;;;;;;;29.08;52.01;100417.94;1778927;80;21230;-74
2022/08/04 12:36:55;;;;;;;;;;;;;;;29.20;52.48;100410.73;1791382;79;21105;-74
2022/08/04 12:39:21;;;;;;;;;;;;;;;29.44;52.54;100406.47;1786986;80;20139;-75
2022/08/04 12:42:10;;;;;;;;;;;;;;;29.70;52.48;100409.31;1791164;79;20170;-76
2022/08/04 12:44:38;;;;;;;;;;;;;;;29.87;51.03;100405.79;1790727;79;20177;-76
2022/08/04 12:47:08;;;;;;;;;;;;;;;29.99;51.29;100417.80;1759980;80;21277;-77
2022/08/04 12:49:35;;;;;;;;;;;;;;;29.98;50.33;100419.56;1773484;80;20206;-75
2022/08/04 12:52:05;;;;;;;;;;;;;;;29.73;51.08;100431.94;1787127;79;20162;-74
2022/08/04 12:54:32;;;;;;;;;;;;;;;28.65;54.28;100463.62;1791219;80;20436;-73
2022/08/04 12:56:58;;;;;;;;;;;;;;;27.18;57.55;100474.47;1791908;80;20185;-75
2022/08/04 12:59:25;;;;;;;;;;;;;;;25.53;84.78;100506.97;1772268;80;21119;-72
2022/08/04 13:01:51;;;;;;;;;;;;;;;24.32;89.88;100492.08;1760615;81;20157;-75
2022/08/04 13:04:20;;;;;;;;;;;;;;;23.44;91.38;100514.38;1760205;81;20205;-73
2022/08/04 13:06:56;;;;;;;;;;;;;;;22.68;93.31;100509.31;1760033;81;20327;-71
2022/08/04 13:09:25;;;;;;;;;;;;;;;22.18;94.97;100504.14;1760154;81;20177;-70
2022/08/04 13:11:54;;;;;;;;;;;;;;;21.86;92.84;100497.55;1760518;81;21935;-70
2022/08/04 13:14:21;;;;;;;;;;;;;;;21.75;87.72;100478.11;1760853;81;20177;-71
2022/08/04 13:16:47;;;;;;;;;;;;;;;21.75;78.47;100472.67;1760538;81;20216;-71